Time;durP1;ratioP1;P1;durP2;ratioP2;P2;SDS_P1;SDS_P2;PMS_P1;PMS_P2;Temp;Humidity;BMP_temperature;BMP_pressure;BME280_temperature;BME280_humidity;BME280_pressure;Samples;Min_cycle;Max_cycle;Signal;HPM_P1;HPM_P2
2023/11/21 00:01:21;;;;;;;21.03;9.50;;;7.30;99.90;;;;;;20680167;28;20042;-47
2023/11/21 00:11:21;;;;;;;17.63;9.77;;;7.30;99.90;;;;;;20757088;28;20548;-47
2023/11/21 00:21:22;;;;;;;23.27;10.13;;;7.20;99.90;;;;;;20768110;28;20407;-47
2023/11/21 00:31:23;;;;;;;20.85;9.02;;;7.10;99.90;;;;;;20765764;28;20085;-47
2023/11/21 00:41:23;;;;;;;15.55;8.73;;;6.90;99.90;;;;;;20750702;28;20112;-47
2023/11/21 00:51:24;;;;;;;14.77;7.97;;;6.90;99.90;;;;;;20725508;28;20038;-53
2023/11/21 01:01:27;;;;;;;15.18;7.45;;;6.90;99.90;;;;;;20675388;28;20037;-47
2023/11/21 01:11:28;;;;;;;14.98;8.20;;;6.90;99.90;;;;;;20658711;28;20042;-47
2023/11/21 01:21:29;;;;;;;15.48;7.40;;;6.90;99.90;;;;;;20700082;28;20072;-47
2023/11/21 01:31:29;;;;;;;13.20;7.20;;;7.10;99.90;;;;;;20692159;28;20037;-48
2023/11/21 01:41:30;;;;;;;14.73;6.85;;;7.20;99.90;;;;;;20689491;28;20046;-47
2023/11/21 01:51:31;;;;;;;13.77;6.95;;;7.40;99.90;;;;;;20689177;28;20380;-47
2023/11/21 02:01:32;;;;;;;14.63;6.70;;;7.50;99.90;;;;;;20773441;28;20441;-48
2023/11/21 02:11:34;;;;;;;13.30;6.28;;;7.60;99.90;;;;;;20751789;28;20249;-47
2023/11/21 02:21:36;;;;;;;12.68;7.53;;;7.80;99.90;;;;;;20763502;28;20566;-47
2023/11/21 02:31:38;;;;;;;11.02;6.43;;;7.90;99.90;;;;;;20738600;28;20030;-47
2023/11/21 02:41:39;;;;;;;11.75;6.05;;;7.90;99.90;;;;;;20736002;28;20057;-47
2023/11/21 02:51:39;;;;;;;11.03;6.73;;;8.00;99.90;;;;;;20725907;28;20129;-48
2023/11/21 03:01:40;;;;;;;17.23;7.07;;;8.10;99.90;;;;;;20751090;28;21127;-47
2023/11/21 03:11:40;;;;;;;12.20;6.53;;;8.20;99.90;;;;;;20750716;28;20088;-47
2023/11/21 03:21:41;;;;;;;19.35;9.88;;;8.30;99.90;;;;;;20743998;28;20052;-47
2023/11/21 03:31:41;;;;;;;25.45;11.50;;;8.30;99.90;;;;;;20740683;28;20138;-46
2023/11/21 03:41:42;;;;;;;22.05;10.07;;;8.40;99.90;;;;;;20754142;28;20536;-47
2023/11/21 03:51:42;;;;;;;17.50;9.23;;;8.40;99.90;;;;;;20756757;28;20030;-47
2023/11/21 04:01:43;;;;;;;13.40;7.60;;;8.50;99.90;;;;;;20759393;28;20072;-47
2023/11/21 04:11:45;;;;;;;14.75;7.50;;;8.50;99.90;;;;;;20763545;28;20502;-47
2023/11/21 04:21:46;;;;;;;14.10;6.45;;;8.50;99.90;;;;;;20762021;28;20144;-47
2023/11/21 04:31:48;;;;;;;14.20;6.45;;;8.50;99.90;;;;;;20754619;28;20080;-47
2023/11/21 04:41:50;;;;;;;18.77;7.22;;;8.50;99.90;;;;;;20764597;28;20080;-47
2023/11/21 04:51:50;;;;;;;15.35;8.23;;;8.60;99.90;;;;;;20764237;28;20756;-47
2023/11/21 05:01:51;;;;;;;14.55;7.55;;;8.80;99.90;;;;;;20770883;28;20087;-47
2023/11/21 05:11:53;;;;;;;15.23;7.32;;;8.80;99.90;;;;;;20780264;28;20120;-48
2023/11/21 05:21:53;;;;;;;12.63;5.97;;;8.80;99.90;;;;;;20778080;28;20517;-47
2023/11/21 05:31:54;;;;;;;12.02;6.50;;;8.80;99.90;;;;;;20777249;28;20045;-47
2023/11/21 05:41:55;;;;;;;15.90;7.13;;;8.80;99.90;;;;;;20773742;28;20049;-48
2023/11/21 05:51:56;;;;;;;14.32;7.53;;;8.80;99.90;;;;;;20772245;28;20037;-47
2023/11/21 06:01:57;;;;;;;19.55;8.77;;;8.90;99.90;;;;;;20773379;28;20558;-47
2023/11/21 06:11:58;;;;;;;23.17;9.68;;;9.00;99.90;;;;;;20771718;28;20049;-47
2023/11/21 06:21:59;;;;;;;19.98;8.85;;;9.10;99.90;;;;;;20778018;28;20041;-48
2023/11/21 06:32:00;;;;;;;13.32;7.15;;;9.20;99.90;;;;;;20737291;28;20046;-47
2023/11/21 06:42:00;;;;;;;10.68;6.00;;;9.10;99.90;;;;;;20689152;28;20066;-47
2023/11/21 06:52:02;;;;;;;14.80;7.43;;;9.10;99.90;;;;;;20746584;28;20281;-47
2023/11/21 07:02:04;;;;;;;15.50;7.65;;;9.10;99.90;;;;;;20767364;28;20041;-47
2023/11/21 07:12:07;;;;;;;12.82;6.85;;;9.20;99.90;;;;;;20776051;28;20049;-48
2023/11/21 07:22:08;;;;;;;12.27;6.05;;;9.40;99.90;;;;;;20723217;28;20038;-48
2023/11/21 07:32:13;;;;;;;11.35;5.80;;;9.60;99.90;;;;;;20693383;28;20041;-47
2023/11/21 07:42:14;;;;;;;8.60;4.63;;;9.80;99.90;;;;;;20721962;28;20164;-47
2023/11/21 07:52:16;;;;;;;11.20;5.60;;;9.90;99.90;;;;;;20756615;28;20049;-47
2023/11/21 08:02:17;;;;;;;14.27;6.35;;;10.10;99.90;;;;;;20716197;28;20033;-48
2023/11/21 08:12:20;;;;;;;12.55;5.35;;;10.30;99.90;;;;;;20688727;28;20509;-48
2023/11/21 08:22:20;;;;;;;11.98;5.70;;;10.30;99.90;;;;;;20749863;28;20526;-48
2023/11/21 08:32:22;;;;;;;11.18;5.20;;;10.30;99.90;;;;;;20768229;28;20161;-48
2023/11/21 08:42:23;;;;;;;9.98;4.55;;;10.30;99.90;;;;;;20771061;28;20147;-48
2023/11/21 08:52:23;;;;;;;9.15;4.43;;;10.40;99.90;;;;;;20766689;28;20514;-48
2023/11/21 09:02:26;;;;;;;10.07;4.95;;;10.50;99.90;;;;;;20760260;28;20415;-48
2023/11/21 09:12:26;;;;;;;8.50;4.35;;;10.50;99.90;;;;;;20697964;28;20030;-48
2023/11/21 09:22:29;;;;;;;8.82;4.10;;;10.50;99.90;;;;;;20740035;28;20219;-47
2023/11/21 09:32:30;;;;;;;9.32;3.97;;;10.50;99.90;;;;;;20751466;28;20502;-48
2023/11/21 09:42:40;;;;;;;7.70;3.90;;;10.50;99.90;;;;;;20689911;28;20038;-48
2023/11/21 09:53:10;;;;;;;10.05;4.57;;;10.40;99.90;;;;;;20703296;28;20483;-48
2023/11/21 10:03:11;;;;;;;8.90;4.38;;;10.50;99.90;;;;;;20770276;28;20900;-48
2023/11/21 10:13:16;;;;;;;9.40;4.45;;;10.40;99.90;;;;;;20763484;28;20202;-48
2023/11/21 10:23:18;;;;;;;8.77;4.30;;;10.40;99.90;;;;;;20777252;28;20095;-48
2023/11/21 10:33:27;;;;;;;9.50;4.50;;;10.50;99.90;;;;;;20792921;28;20129;-48
2023/11/21 10:43:28;;;;;;;11.07;5.80;;;10.40;99.90;;;;;;20776090;28;20041;-48
2023/11/21 10:53:28;;;;;;;20.33;8.20;;;10.40;99.90;;;;;;20742673;28;20534;-48
2023/11/21 11:03:33;;;;;;;18.65;8.82;;;10.40;99.90;;;;;;20773775;28;20076;-48
2023/11/21 11:13:33;;;;;;;20.25;8.85;;;10.40;99.90;;;;;;20779261;28;20036;-48
2023/11/21 11:23:58;;;;;;;22.27;9.43;;;10.40;99.90;;;;;;20778724;28;20041;-48
2023/11/21 11:34:06;;;;;;;17.48;8.73;;;10.30;99.90;;;;;;20771746;28;20565;-48
2023/11/21 11:44:45;;;;;;;24.00;9.50;;;10.30;99.90;;;;;;20767844;28;20050;-47
2023/11/21 11:54:46;;;;;;;21.50;8.60;;;10.40;99.90;;;;;;20762352;28;20048;-48
2023/11/21 12:04:46;;;;;;;17.15;7.38;;;10.40;99.90;;;;;;20754909;28;20419;-48
2023/11/21 12:14:47;;;;;;;25.98;9.90;;;10.40;99.90;;;;;;20767374;28;20045;-48
2023/11/21 12:24:48;;;;;;;22.83;9.93;;;10.40;99.90;;;;;;20728536;28;20045;-48
2023/11/21 12:34:49;;;;;;;27.50;10.52;;;10.30;99.90;;;;;;20672309;28;21084;-48
2023/11/21 12:45:15;;;;;;;22.90;9.05;;;10.20;99.90;;;;;;20632929;28;20093;-48
2023/11/21 12:55:17;;;;;;;24.23;9.77;;;10.10;99.90;;;;;;20649410;28;20335;-48
2023/11/21 13:05:28;;;;;;;25.73;10.52;;;10.20;99.90;;;;;;20716176;28;20449;-47
2023/11/21 13:15:31;;;;;;;27.05;11.80;;;10.20;99.90;;;;;;20684310;28;20137;-47
2023/11/21 13:25:31;;;;;;;30.15;12.57;;;10.10;99.90;;;;;;20668583;28;20061;-47
2023/11/21 13:35:46;;;;;;;26.25;12.30;;;10.10;99.90;;;;;;20675714;28;20041;-47
2023/11/21 13:45:58;;;;;;;26.35;10.80;;;10.10;99.90;;;;;;20646784;28;20117;-47
2023/11/21 13:55:58;;;;;;;27.75;11.70;;;10.00;99.90;;;;;;20710676;28;20155;-48
2023/11/21 14:06:00;;;;;;;24.80;11.07;;;10.10;99.90;;;;;;20711062;28;20050;-48
2023/11/21 14:16:02;;;;;;;26.88;11.73;;;10.00;99.90;;;;;;20738037;28;20044;-47
2023/11/21 14:26:03;;;;;;;24.60;11.18;;;10.00;99.90;;;;;;20752389;28;20666;-48
2023/11/21 14:36:03;;;;;;;19.88;10.35;;;9.90;99.90;;;;;;20737997;28;21190;-48
2023/11/21 14:46:08;;;;;;;20.75;10.38;;;9.90;99.90;;;;;;20679083;28;20404;-48
2023/11/21 14:56:10;;;;;;;18.63;10.00;;;9.90;99.90;;;;;;20669625;28;20128;-47
2023/11/21 15:06:26;;;;;;;16.58;8.73;;;9.70;99.90;;;;;;20676961;28;20048;-48
2023/11/21 15:16:26;;;;;;;17.85;8.65;;;9.70;99.90;;;;;;20672867;28;20045;-48
2023/11/21 15:26:28;;;;;;;18.35;9.65;;;9.60;99.90;;;;;;20683015;28;20062;-48
2023/11/21 15:36:29;;;;;;;17.73;10.32;;;9.60;99.90;;;;;;20723360;28;20144;-48
2023/11/21 15:46:29;;;;;;;15.65;10.07;;;9.60;99.90;;;;;;20753025;28;20105;-48
2023/11/21 15:56:30;;;;;;;15.73;9.30;;;9.50;99.90;;;;;;20707356;28;20112;-48
2023/11/21 16:06:30;;;;;;;14.30;8.90;;;9.40;99.90;;;;;;20738948;28;20072;-48
2023/11/21 16:16:31;;;;;;;12.25;8.35;;;9.20;99.90;;;;;;20734961;28;20048;-48
2023/11/21 16:26:32;;;;;;;12.38;8.55;;;9.20;79.50;;;;;;20739137;28;20041;-48
2023/11/21 16:36:33;;;;;;;14.07;9.05;;;9.10;63.20;;;;;;20740939;28;20044;-48
2023/11/21 16:46:33;;;;;;;17.63;9.45;;;9.00;66.70;;;;;;20758289;28;20045;-48
2023/11/21 16:56:35;;;;;;;14.80;9.33;;;8.80;69.00;;;;;;20767744;28;20379;-47
2023/11/21 17:06:36;;;;;;;12.50;8.13;;;8.80;76.50;;;;;;20775627;28;20060;-47
2023/11/21 17:16:37;;;;;;;14.35;8.82;;;8.70;75.50;;;;;;20773652;28;20069;-47
2023/11/21 17:26:37;;;;;;;14.20;9.38;;;8.50;84.20;;;;;;20767448;28;20072;-48
2023/11/21 17:36:40;;;;;;;14.82;9.43;;;8.40;94.60;;;;;;20708529;28;20446;-48
2023/11/21 17:46:41;;;;;;;15.65;9.10;;;8.30;93.00;;;;;;20755556;28;20042;-47
2023/11/21 17:56:41;;;;;;;14.52;8.35;;;8.10;97.30;;;;;;20678824;28;20499;-47
2023/11/21 18:06:42;;;;;;;15.23;8.85;;;8.00;99.90;;;;;;20713189;28;20145;-47
2023/11/21 18:16:43;;;;;;;15.07;8.38;;;7.90;99.90;;;;;;20684045;28;20045;-47
2023/11/21 18:26:44;;;;;;;13.63;7.90;;;7.70;99.90;;;;;;20687425;28;20435;-48
2023/11/21 18:36:45;;;;;;;14.50;8.65;;;7.50;98.70;;;;;;20724076;28;20544;-47
2023/11/21 18:46:46;;;;;;;18.90;7.95;;;7.40;99.90;;;;;;20750212;28;20605;-48
2023/11/21 18:56:46;;;;;;;15.23;8.10;;;7.30;99.90;;;;;;20767819;28;20045;-48
2023/11/21 19:06:47;;;;;;;17.95;8.73;;;7.10;99.90;;;;;;20771102;28;20045;-48
2023/11/21 19:16:48;;;;;;;15.15;9.07;;;7.10;99.90;;;;;;20772623;28;20041;-48
2023/11/21 19:26:49;;;;;;;16.65;9.38;;;7.00;99.90;;;;;;20770131;28;20041;-47
2023/11/21 19:36:51;;;;;;;17.10;9.80;;;7.00;99.90;;;;;;20775544;28;20175;-48
2023/11/21 19:46:51;;;;;;;17.40;10.40;;;6.80;99.90;;;;;;20775467;28;20081;-47
2023/11/21 19:56:52;;;;;;;21.80;10.38;;;6.70;99.90;;;;;;20775318;28;20534;-48
2023/11/21 20:06:54;;;;;;;20.10;9.90;;;6.80;99.90;;;;;;20774948;28;20065;-48
2023/11/21 20:16:55;;;;;;;15.85;9.20;;;6.80;99.90;;;;;;20759787;28;20116;-48
2023/11/21 20:26:56;;;;;;;18.40;9.82;;;6.90;99.90;;;;;;20740480;28;20029;-48
2023/11/21 20:36:58;;;;;;;17.33;9.13;;;6.80;99.90;;;;;;20744465;28;20383;-48
2023/11/21 20:46:58;;;;;;;18.23;10.07;;;6.80;99.90;;;;;;20701916;28;20038;-47
2023/11/21 20:56:59;;;;;;;16.00;9.18;;;6.80;99.90;;;;;;20685966;28;20041;-48
2023/11/21 21:06:59;;;;;;;16.05;9.80;;;6.70;99.90;;;;;;20688315;28;20416;-49
2023/11/21 21:17:00;;;;;;;14.40;8.88;;;6.60;99.90;;;;;;20719857;28;20046;-48
2023/11/21 21:27:01;;;;;;;16.80;9.38;;;6.40;99.90;;;;;;20707362;28;20034;-47
2023/11/21 21:37:02;;;;;;;14.20;8.18;;;6.40;99.90;;;;;;20679885;28;20073;-47
2023/11/21 21:47:03;;;;;;;16.60;9.38;;;6.30;99.90;;;;;;20741975;28;20160;-48
2023/11/21 21:57:03;;;;;;;17.48;10.15;;;6.20;99.90;;;;;;20773092;28;20410;-48
2023/11/21 22:07:04;;;;;;;16.48;9.77;;;6.10;99.90;;;;;;20776792;28;20053;-48
2023/11/21 22:17:05;;;;;;;18.13;8.93;;;6.10;99.90;;;;;;20763489;28;20038;-48
2023/11/21 22:27:05;;;;;;;15.55;8.27;;;6.30;99.90;;;;;;20789182;28;20076;-48
2023/11/21 22:37:06;;;;;;;17.25;8.57;;;6.30;99.90;;;;;;20769477;28;20111;-48
2023/11/21 22:47:06;;;;;;;13.55;8.05;;;6.30;99.90;;;;;;20709283;28;20045;-48
2023/11/21 22:57:07;;;;;;;15.02;8.82;;;6.30;99.90;;;;;;20703930;28;20518;-48
2023/11/21 23:07:08;;;;;;;11.70;7.57;;;6.20;99.90;;;;;;20702811;28;20049;-47
2023/11/21 23:17:08;;;;;;;13.95;8.23;;;6.30;99.90;;;;;;20674103;28;20274;-48
2023/11/21 23:27:09;;;;;;;15.00;8.45;;;6.20;99.90;;;;;;20670305;28;20042;-48
2023/11/21 23:37:09;;;;;;;17.45;8.60;;;6.20;99.90;;;;;;20701664;28;20863;-47
2023/11/21 23:47:10;;;;;;;17.73;9.10;;;6.30;99.90;;;;;;20700054;28;20083;-48
2023/11/21 23:57:10;;;;;;;14.18;8.23;;;6.30;99.90;;;;;;20687127;28;20483;-48
